Time;durP1;ratioP1;P1;durP2;ratioP2;P2;SDS_P1;SDS_P2;PMS_P1;PMS_P2;Temp;Humidity;BMP_temperature;BMP_pressure;BME280_temperature;BME280_humidity;BME280_pressure;Samples;Min_cycle;Max_cycle;Signal;HPM_P1;HPM_P2
2022/02/27 00:01:08;;;;;;;73.13;32.37;;;4.20;99.90;;;4.28;84.41;103076.34;5094178;28;20040;-70
2022/02/27 00:03:39;;;;;;;68.13;30.90;;;4.20;99.90;;;4.22;84.33;103077.72;5093856;28;20040;-70
2022/02/27 00:06:10;;;;;;;64.07;30.80;;;4.20;99.90;;;4.39;83.47;103067.34;5075467;28;20040;-66
2022/02/27 00:08:39;;;;;;;63.63;30.13;;;4.30;99.90;;;4.23;83.56;103040.22;5075885;28;20059;-70
2022/02/27 00:11:10;;;;;;;72.50;31.20;;;4.40;99.90;;;4.44;82.93;103058.06;5093511;28;20366;-71
2022/02/27 00:13:39;;;;;;;68.93;31.50;;;4.40;99.90;;;4.53;82.57;103070.75;5093945;28;20052;-71
2022/02/27 00:16:09;;;;;;;70.10;31.80;;;4.40;99.90;;;4.46;82.48;103061.66;5093892;28;20393;-70
2022/02/27 00:18:39;;;;;;;72.30;31.87;;;4.40;99.90;;;1.72;82.53;102630.94;5093887;28;20044;-69
2022/02/27 00:21:11;;;;;;;62.08;29.75;;;4.40;99.90;;;4.59;82.03;103087.72;5075718;28;20397;-70
2022/02/27 00:23:43;;;;;;;62.23;29.17;;;4.50;99.90;;;4.66;81.66;103103.78;5075712;28;20044;-69
2022/02/27 00:26:11;;;;;;;62.70;30.23;;;4.50;99.90;;;4.55;81.20;103059.53;5093855;28;20048;-69
2022/02/27 00:28:41;;;;;;;65.03;28.27;;;4.60;99.90;;;4.67;81.05;103069.78;5093425;28;20097;-68
2022/02/27 00:31:10;;;;;;;58.22;30.27;;;4.70;99.90;;;4.11;80.89;103045.69;5075395;28;20497;-69
2022/02/27 00:33:42;;;;;;;66.87;28.50;;;4.60;99.90;;;4.68;80.87;103068.97;5075462;28;20044;-68
2022/02/27 00:36:11;;;;;;;66.88;28.25;;;4.60;99.90;;;4.48;80.88;103030.28;5093568;28;20044;-69
2022/02/27 00:38:40;;;;;;;62.07;28.53;;;4.60;99.90;;;4.64;80.41;103074.88;5075093;28;20047;-70
2022/02/27 00:41:11;;;;;;;56.20;28.53;;;4.60;99.90;;;4.62;80.32;103075.59;5093635;28;20126;-70
2022/02/27 00:43:40;;;;;;;64.70;27.73;;;4.60;99.90;;;4.42;80.25;103040.44;5093422;28;20048;-69
2022/02/27 00:46:09;;;;;;;64.73;27.27;;;4.50;99.90;;;4.64;80.39;103074.88;5075554;28;20048;-69
2022/02/27 00:48:39;;;;;;;62.07;27.00;;;4.50;99.90;;;4.38;80.34;103054.19;5093372;28;20451;-70
2022/02/27 00:51:12;;;;;;;55.17;26.07;;;4.40;99.90;;;4.26;80.26;103002.00;5093159;28;20067;-69
2022/02/27 00:53:40;;;;;;;52.77;25.97;;;4.60;99.90;;;4.53;79.85;103066.41;5075173;28;20078;-70
2022/02/27 00:56:09;;;;;;;56.17;25.50;;;4.50;99.90;;;4.45;80.21;103051.97;5075235;28;20075;-69
2022/02/27 00:58:40;;;;;;;54.70;25.27;;;4.40;99.90;;;4.34;80.05;103066.22;5093156;28;20374;-69
2022/02/27 01:01:09;;;;;;;48.87;23.20;;;4.30;99.90;;;4.35;79.82;103062.78;5075328;28;20503;-69
2022/02/27 01:03:39;;;;;;;47.67;23.00;;;4.20;99.90;;;3.97;79.41;102975.06;5075180;28;20569;-69
2022/02/27 01:06:07;;;;;;;52.53;23.33;;;4.30;99.90;;;4.19;79.66;103036.56;5093317;28;20446;-69
2022/02/27 01:08:37;;;;;;;45.10;22.63;;;4.20;99.90;;;4.34;79.32;103063.59;5092992;28;20294;-69
2022/02/27 01:11:05;;;;;;;45.60;20.67;;;4.20;99.90;;;4.12;79.25;103031.75;5074825;28;20050;-69
2022/02/27 01:13:37;;;;;;;50.67;22.17;;;4.20;99.90;;;4.38;79.16;103059.41;5075063;28;20044;-69
2022/02/27 01:16:09;;;;;;;56.63;21.73;;;4.30;99.90;;;4.49;78.95;103050.47;5094797;28;20048;-70
2022/02/27 01:18:38;;;;;;;46.83;21.60;;;4.40;99.90;;;4.12;78.75;102989.00;5097291;28;20093;-69
2022/02/27 01:21:08;;;;;;;47.95;24.25;;;4.40;99.90;;;4.43;78.45;103024.78;5096039;28;20047;-69
2022/02/27 01:23:38;;;;;;;48.97;23.03;;;4.40;99.90;;;4.26;78.63;103007.25;5096890;28;20094;-70
2022/02/27 01:26:07;;;;;;;53.80;24.73;;;4.40;99.90;;;3.99;78.65;102953.34;5079144;28;20044;-69
2022/02/27 01:28:37;;;;;;;55.72;24.83;;;4.40;99.90;;;4.29;79.02;103015.28;5079012;28;20040;-69
2022/02/27 01:31:07;;;;;;;57.90;26.17;;;4.40;99.90;;;4.38;79.24;103051.56;5096807;28;20451;-69
2022/02/27 01:33:38;;;;;;;56.30;25.03;;;4.40;99.90;;;4.26;79.94;103028.19;5096711;28;20489;-69
2022/02/27 01:36:07;;;;;;;55.30;25.10;;;4.30;99.90;;;4.30;79.83;103052.84;5096956;28;20040;-69
2022/02/27 01:38:38;;;;;;;54.72;26.13;;;4.20;99.90;;;4.27;79.95;103044.84;5097007;28;20405;-69
2022/02/27 01:41:07;;;;;;;60.50;27.30;;;4.20;99.90;;;4.14;80.48;103042.34;5079019;28;20044;-69
2022/02/27 01:43:38;;;;;;;56.03;26.47;;;4.10;99.90;;;4.12;80.67;103023.91;5096782;28;20059;-69
2022/02/27 01:46:09;;;;;;;54.07;26.20;;;4.10;99.90;;;4.07;80.51;103041.09;5096825;28;20036;-69
2022/02/27 01:48:40;;;;;;;56.00;26.17;;;4.00;99.90;;;4.20;80.17;103034.84;5078594;28;20143;-69
2022/02/27 01:51:09;;;;;;;51.03;24.50;;;4.10;99.90;;;4.03;80.10;103028.63;5078513;28;20048;-70
2022/02/27 01:53:40;;;;;;;55.67;25.05;;;4.10;99.90;;;4.03;79.70;103014.63;5096609;28;20505;-70
2022/02/27 01:56:09;;;;;;;;;;;4.20;99.90;;;4.16;79.83;103052.06;5097213;28;20042;-69
2022/02/27 01:58:37;;;;;;;58.70;23.77;;;4.10;99.90;;;4.15;80.27;103038.91;5078245;28;19920;-69
2022/02/27 02:01:06;;;;;;;56.70;25.00;;;4.20;99.90;;;4.23;80.21;103048.09;5096715;28;20044;-69
2022/02/27 02:03:36;;;;;;;56.08;24.50;;;4.10;99.90;;;4.13;80.19;103030.06;5078587;28;20093;-69
2022/02/27 02:06:04;;;;;;;52.53;24.37;;;4.10;99.90;;;4.05;79.85;103058.44;5096712;28;20076;-69
2022/02/27 02:08:35;;;;;;;49.17;23.60;;;4.10;99.90;;;4.00;80.11;103051.13;5082050;28;20044;-69
2022/02/27 02:11:08;;;;;;;51.43;22.77;;;3.90;99.90;;;3.95;79.74;103045.63;5088576;28;20040;-70
2022/02/27 02:13:36;;;;;;;45.85;21.55;;;3.90;99.90;;;3.68;80.10;103050.19;5093014;28;20044;-69
2022/02/27 02:16:06;;;;;;;48.77;22.60;;;3.80;99.90;;;4.01;80.01;103047.69;5111772;28;20074;-68
2022/02/27 02:18:38;;;;;;;46.13;20.90;;;3.90;99.90;;;1.83;79.06;102661.19;5095090;28;20055;-69
2022/02/27 02:21:09;;;;;;;42.30;21.30;;;3.90;99.90;;;3.96;79.15;103051.78;5088445;28;20044;-68
2022/02/27 02:23:37;;;;;;;;;;;3.90;99.90;;;4.07;78.68;103041.09;5083235;28;20052;-70
2022/02/27 02:26:07;;;;;;;40.13;20.10;;;3.90;99.90;;;4.09;78.87;103042.06;5078291;28;19920;-70
2022/02/27 02:28:36;;;;;;;40.43;19.77;;;4.00;99.90;;;4.03;78.66;103032.97;5095236;28;20048;-70
2022/02/27 02:31:04;;;;;;;48.43;19.87;;;4.00;99.90;;;4.14;78.42;103032.75;5095660;28;20075;-73
2022/02/27 02:33:37;;;;;;;43.03;20.10;;;4.00;99.90;;;4.14;78.09;103035.38;5095492;28;20032;-70
2022/02/27 02:36:08;;;;;;;44.07;20.03;;;4.00;99.90;;;4.07;78.18;103014.00;5077639;28;20051;-69
2022/02/27 02:38:39;;;;;;;44.17;20.37;;;4.00;99.90;;;4.26;77.95;103022.97;5095830;28;20040;-70
2022/02/27 02:41:09;;;;;;;39.93;19.10;;;4.20;99.90;;;4.02;77.28;102999.75;5077510;28;20044;-69
2022/02/27 02:43:38;;;;;;;38.07;18.53;;;4.10;99.90;;;4.14;77.74;103021.41;5077517;28;20134;-69
2022/02/27 02:46:06;;;;;;;36.60;18.97;;;4.10;99.90;;;4.20;77.61;103021.75;5077395;28;20131;-69
2022/02/27 02:48:35;;;;;;;39.47;18.77;;;4.10;99.90;;;3.46;77.50;102923.28;5095325;28;20069;-70
2022/02/27 02:51:26;;;;;;;45.23;18.80;;;4.10;99.90;;;4.05;77.61;103015.63;5077445;28;20051;-69
2022/02/27 02:53:55;;;;;;;41.75;19.92;;;4.00;99.90;;;3.97;78.04;103002.09;5095403;28;20409;-70
2022/02/27 02:56:23;;;;;;;39.57;19.30;;;4.00;99.90;;;4.00;77.84;103006.63;5095396;28;20036;-70
2022/02/27 02:58:52;;;;;;;41.00;19.10;;;4.00;99.90;;;3.94;78.46;103017.66;5077117;28;20138;-69
2022/02/27 03:01:22;;;;;;;43.27;20.33;;;3.90;99.90;;;3.65;78.73;102960.13;5095122;28;20048;-69
2022/02/27 03:03:52;;;;;;;44.37;20.13;;;3.80;99.90;;;3.81;79.49;103017.78;5076960;28;20428;-70
2022/02/27 03:06:21;;;;;;;42.60;20.27;;;3.80;99.90;;;3.85;79.40;103005.75;5095246;28;20533;-70
2022/02/27 03:08:52;;;;;;;46.00;20.30;;;3.80;99.90;;;3.86;79.05;103032.03;5095146;28;20047;-70
2022/02/27 03:11:21;;;;;;;48.33;21.03;;;3.80;99.90;;;3.83;79.62;102992.59;5095211;28;20477;-69
2022/02/27 03:13:51;;;;;;;55.60;21.50;;;3.80;99.90;;;3.97;79.48;103007.34;5095053;28;20048;-70
2022/02/27 03:16:19;;;;;;;49.23;20.37;;;3.90;99.90;;;3.87;79.30;103002.41;5095097;28;20052;-69
2022/02/27 03:18:48;;;;;;;42.97;21.20;;;3.80;99.90;;;3.79;79.79;102993.25;5094780;28;20051;-69
2022/02/27 03:21:16;;;;;;;42.10;20.63;;;3.80;99.90;;;3.79;79.83;102992.31;5094666;28;20074;-69
2022/02/27 03:23:46;;;;;;;44.63;19.97;;;3.80;99.90;;;3.76;80.34;102987.81;5094573;28;20094;-70
2022/02/27 03:26:17;;;;;;;41.08;20.23;;;3.70;99.90;;;3.62;80.03;102954.72;5094398;28;20055;-69
2022/02/27 03:28:46;;;;;;;48.75;21.20;;;3.70;99.90;;;3.81;79.98;102989.00;5094568;28;20036;-69
2022/02/27 03:31:14;;;;;;;48.73;19.77;;;3.70;99.90;;;3.71;79.66;103002.34;5094762;28;20044;-70
2022/02/27 03:33:43;;;;;;;43.57;20.60;;;3.80;99.90;;;1.53;79.68;102578.50;5094624;28;20085;-69
2022/02/27 03:36:11;;;;;;;43.93;20.70;;;3.70;99.90;;;3.55;79.92;102934.25;5094662;28;20044;-69
2022/02/27 03:38:40;;;;;;;41.83;20.50;;;3.70;99.90;;;3.82;79.82;102976.78;5094015;28;20045;-69
2022/02/27 03:41:09;;;;;;;44.20;20.57;;;3.80;99.90;;;3.32;79.60;102905.88;5093719;28;20051;-70
2022/02/27 03:43:39;;;;;;;46.00;21.03;;;3.70;99.90;;;3.70;79.69;102971.75;5076281;28;20048;-69
2022/02/27 03:46:07;;;;;;;39.40;19.58;;;3.70;99.90;;;3.75;79.91;102993.88;5094530;28;20127;-69
2022/02/27 03:48:36;;;;;;;39.63;18.53;;;3.80;99.90;;;3.74;80.08;102989.44;5094325;28;20044;-69
2022/02/27 03:51:05;;;;;;;39.53;20.03;;;3.70;99.90;;;3.59;80.14;102963.31;5076170;28;20052;-69
2022/02/27 03:53:33;;;;;;;41.87;19.03;;;3.70;99.90;;;3.85;79.87;102987.44;5093973;28;20039;-69
2022/02/27 03:56:04;;;;;;;41.03;19.65;;;3.80;99.90;;;3.84;79.34;102975.16;5094424;28;20055;-69
2022/02/27 03:58:33;;;;;;;42.47;19.47;;;3.90;99.90;;;3.70;79.27;102956.06;5094242;28;20051;-69
2022/02/27 04:01:03;;;;;;;44.87;19.47;;;3.90;99.90;;;3.59;79.47;102939.75;5094177;28;20056;-69
2022/02/27 04:03:31;;;;;;;36.65;18.42;;;3.90;99.90;;;1.40;78.55;102505.63;5094204;28;20050;-70
2022/02/27 04:06:00;;;;;;;43.13;19.33;;;4.00;99.90;;;3.66;78.88;102951.47;5094138;28;20078;-69
2022/02/27 04:08:30;;;;;;;43.37;19.00;;;3.90;99.90;;;3.94;78.83;102981.00;5093823;28;20386;-69
2022/02/27 04:10:58;;;;;;;39.47;20.08;;;3.90;99.90;;;3.78;78.80;102972.19;5094155;28;20040;-69
2022/02/27 04:13:27;;;;;;;43.33;20.53;;;3.90;99.90;;;3.98;78.80;102984.69;5093636;28;20081;-69
2022/02/27 04:15:55;;;;;;;41.10;19.80;;;4.00;99.90;;;4.04;78.39;102991.19;5093991;28;20386;-70
2022/02/27 04:18:25;;;;;;;41.50;18.30;;;4.00;99.90;;;4.02;78.50;102984.06;5093667;28;20036;-69
2022/02/27 04:20:54;;;;;;;46.70;19.50;;;4.00;99.90;;;3.77;78.55;102950.38;5075932;28;20054;-69
2022/02/27 04:23:25;;;;;;;39.23;19.43;;;3.90;99.90;;;3.99;78.32;102994.38;5093674;28;20040;-69
2022/02/27 04:26:00;;;;;;;38.27;19.73;;;4.10;99.90;;;3.06;78.62;102833.78;5094082;28;20051;-69
2022/02/27 04:28:28;;;;;;;42.00;18.15;;;3.90;99.90;;;2.97;78.40;102824.53;5093517;28;20040;-69
2022/02/27 04:30:57;;;;;;;38.60;19.50;;;3.90;99.90;;;3.55;78.93;102960.41;5093430;28;20482;-69
2022/02/27 04:33:30;;;;;;;40.33;18.63;;;3.70;99.90;;;3.16;79.51;102919.78;5093322;28;20059;-69
2022/02/27 04:35:59;;;;;;;37.57;18.73;;;3.60;99.90;;;3.48;79.32;102950.44;5093439;28;20060;-69
2022/02/27 04:38:29;;;;;;;40.78;19.88;;;3.70;99.90;;;3.42;79.24;102950.97;5075476;28;20076;-70
2022/02/27 04:41:00;;;;;;;39.93;18.13;;;3.60;99.90;;;3.84;79.20;103002.22;5093387;28;20074;-70
2022/02/27 04:43:34;;;;;;;39.27;18.70;;;3.80;99.90;;;3.71;79.03;102988.38;5093358;28;20040;-70
2022/02/27 04:46:03;;;;;;;36.47;18.97;;;3.70;99.90;;;3.87;78.92;102989.31;5075562;28;20055;-69
2022/02/27 04:48:34;;;;;;;42.22;19.25;;;3.80;99.90;;;2.10;78.20;102668.81;5093592;28;20036;-70
2022/02/27 04:51:02;;;;;;;32.88;17.60;;;3.90;99.90;;;3.78;78.19;102990.50;5093287;28;20428;-69
2022/02/27 04:53:34;;;;;;;30.93;17.30;;;3.80;99.90;;;3.57;78.69;102984.97;5093179;28;20086;-69
2022/02/27 04:56:04;;;;;;;34.80;17.37;;;3.60;99.90;;;3.55;79.12;102978.72;5093333;28;20105;-69
2022/02/27 04:58:32;;;;;;;43.00;18.13;;;3.50;99.90;;;3.56;79.36;102991.03;5093253;28;20047;-69
2022/02/27 05:01:02;;;;;;;36.37;18.67;;;3.50;99.90;;;2.81;79.45;102961.22;5093571;28;20270;-69
2022/02/27 05:03:31;;;;;;;33.97;16.93;;;3.50;99.90;;;3.27;78.83;102944.84;5093029;28;20101;-69
2022/02/27 05:06:00;;;;;;;37.13;17.47;;;3.50;99.90;;;3.38;79.29;102972.53;5075239;28;20101;-69
2022/02/27 05:08:31;;;;;;;31.08;17.67;;;3.50;99.90;;;3.18;79.59;102972.16;5093569;28;20044;-69
2022/02/27 05:11:02;;;;;;;36.20;17.87;;;3.40;99.90;;;3.22;80.17;102982.00;5093345;28;20040;-69
2022/02/27 05:13:32;;;;;;;37.80;18.50;;;3.20;99.90;;;2.81;80.73;102936.84;5092994;28;20130;-69
2022/02/27 05:16:01;;;;;;;33.70;18.43;;;3.00;99.90;;;1.90;80.85;102766.78;5092841;28;20040;-69
2022/02/27 05:18:29;;;;;;;34.57;17.97;;;3.00;99.90;;;3.01;81.16;102958.13;5093173;28;20044;-69
2022/02/27 05:20:59;;;;;;;38.63;17.90;;;3.10;99.90;;;2.95;80.89;102949.00;5075044;28;20071;-69
2022/02/27 05:23:28;;;;;;;34.83;16.98;;;3.00;99.90;;;2.98;81.33;102960.53;5093133;28;20447;-69
2022/02/27 05:25:58;;;;;;;40.07;17.30;;;3.00;99.90;;;2.95;81.35;102947.28;5093097;28;20044;-69
2022/02/27 05:28:27;;;;;;;;;;;3.00;99.90;;;2.86;81.50;102944.13;5093355;28;20035;-69
2022/02/27 05:30:59;;;;;;;34.13;16.37;;;2.90;99.90;;;2.64;81.67;102897.53;5093127;28;19920;-69
2022/02/27 05:33:27;;;;;;;34.10;16.73;;;2.90;99.90;;;2.98;81.13;102955.28;5092759;28;20435;-69
2022/02/27 05:35:56;;;;;;;37.27;17.33;;;2.90;99.90;;;2.94;81.95;102955.03;5074868;28;20060;-69
2022/02/27 05:38:25;;;;;;;31.60;17.30;;;2.90;99.90;;;2.74;81.32;102906.81;5092999;28;20067;-69
2022/02/27 05:40:54;;;;;;;34.00;16.35;;;3.00;99.90;;;1.94;81.38;102794.88;5093100;28;20037;-69
2022/02/27 05:43:22;;;;;;;33.60;16.47;;;2.90;99.90;;;0.43;81.13;102504.00;5092945;28;20067;-70
2022/02/27 05:45:51;;;;;;;31.87;16.70;;;2.90;99.90;;;2.81;82.04;102939.44;5092658;28;20126;-70
2022/02/27 05:48:20;;;;;;;33.30;17.60;;;2.90;99.90;;;2.89;81.73;102946.91;5092641;28;20044;-69
2022/02/27 05:50:50;;;;;;;29.57;17.53;;;2.80;99.90;;;2.96;82.04;102942.97;5092703;28;20044;-69
2022/02/27 05:53:21;;;;;;;31.80;17.17;;;2.90;99.90;;;3.05;81.39;102951.34;5092573;28;20082;-69
2022/02/27 05:55:56;;;;;;;33.33;17.00;;;3.00;99.90;;;2.90;81.44;102956.59;5092729;28;20047;-69
2022/02/27 05:58:25;;;;;;;28.10;16.63;;;2.90;99.90;;;2.89;81.69;102953.84;5074888;28;20048;-69
2022/02/27 06:00:55;;;;;;;33.93;16.73;;;2.80;99.90;;;2.64;81.58;102920.13;5092384;28;20547;-69
2022/02/27 06:03:26;;;;;;;31.33;16.60;;;2.90;99.90;;;3.03;81.32;102959.09;5094276;28;20462;-69
2022/02/27 06:05:56;;;;;;;39.70;17.70;;;3.00;99.90;;;2.89;81.41;102959.06;5078348;28;20056;-69
2022/02/27 06:08:25;;;;;;;26.87;15.53;;;2.90;99.90;;;3.13;81.06;102964.06;5096133;28;20067;-69
2022/02/27 06:10:55;;;;;;;29.17;15.80;;;3.10;99.90;;;3.19;80.36;102974.00;5078088;28;20444;-69
2022/02/27 06:13:23;;;;;;;29.58;14.93;;;3.20;99.90;;;3.20;80.06;102971.47;5096042;28;20101;-69
2022/02/27 06:15:52;;;;;;;32.60;15.63;;;3.20;99.90;;;3.25;79.97;102977.84;5095960;28;20160;-69
2022/02/27 06:18:20;;;;;;;31.77;18.10;;;3.30;99.90;;;3.18;80.06;102977.41;5096125;28;20467;-69
2022/02/27 06:20:49;;;;;;;33.60;16.10;;;3.20;99.90;;;2.99;79.49;102930.06;5096111;28;20040;-69
2022/02/27 06:23:17;;;;;;;28.37;15.67;;;3.30;99.90;;;2.22;79.54;102860.09;5095972;28;20324;-69
2022/02/27 06:25:46;;;;;;;29.60;15.70;;;3.20;99.90;;;3.28;79.52;102972.81;5096248;28;20127;-69
2022/02/27 06:28:17;;;;;;;31.77;16.73;;;3.30;99.90;;;3.25;79.67;102975.22;5095826;28;20044;-69
2022/02/27 06:30:46;;;;;;;31.50;15.23;;;3.30;99.90;;;3.24;79.53;102973.44;5096004;28;20122;-69
2022/02/27 06:33:14;;;;;;;34.10;16.10;;;3.30;99.90;;;3.08;79.64;102952.44;5095713;28;20485;-69
2022/02/27 06:35:43;;;;;;;29.27;14.93;;;3.20;99.90;;;3.03;80.09;102966.94;5095800;28;20040;-69
2022/02/27 06:38:12;;;;;;;32.20;15.77;;;3.10;99.90;;;2.98;80.43;102972.72;5096292;28;20044;-69
2022/02/27 06:40:40;;;;;;;31.03;15.77;;;3.00;99.90;;;1.57;80.75;102793.41;5096958;28;20132;-69
2022/02/27 06:43:09;;;;;;;28.93;14.67;;;2.90;99.90;;;2.48;80.95;102879.13;5096121;28;20047;-69
2022/02/27 06:45:39;;;;;;;25.93;15.10;;;2.90;99.90;;;2.92;80.60;102954.06;5077987;28;20071;-69
2022/02/27 06:48:07;;;;;;;31.45;15.05;;;3.00;99.90;;;3.09;80.71;102958.56;5096714;28;20051;-69
2022/02/27 06:50:36;;;;;;;37.57;14.53;;;3.10;99.90;;;3.18;81.07;102972.16;5097963;28;20440;-69
2022/02/27 06:53:05;;;;;;;33.53;15.63;;;3.10;99.90;;;2.59;80.42;102867.59;5097375;28;20046;-69
2022/02/27 06:55:33;;;;;;;25.30;15.53;;;3.20;99.90;;;3.04;80.23;102939.97;5097238;28;20036;-70
2022/02/27 06:58:04;;;;;;;30.37;15.00;;;3.30;99.90;;;3.40;80.03;102970.91;5097146;28;20101;-71
2022/02/27 07:00:33;;;;;;;30.40;14.97;;;3.40;99.90;;;3.39;79.58;102970.81;5097965;28;20052;-70
2022/02/27 07:03:03;;;;;;;29.10;14.80;;;3.40;99.90;;;3.69;79.33;102983.06;5096046;28;20054;-70
2022/02/27 07:05:31;;;;;;;29.23;14.43;;;3.60;99.90;;;3.94;78.64;102986.25;5077949;28;20125;-70
2022/02/27 07:08:00;;;;;;;27.00;13.97;;;3.80;99.90;;;4.03;77.46;102986.75;5078223;28;20046;-70
2022/02/27 07:10:28;;;;;;;25.63;14.77;;;4.00;99.90;;;3.92;77.72;102981.72;5097642;28;20044;-70
2022/02/27 07:13:00;;;;;;;29.57;13.77;;;3.90;99.90;;;4.18;77.56;102984.09;5096266;28;20477;-70
2022/02/27 07:15:32;;;;;;;26.98;13.50;;;4.10;99.90;;;4.08;76.58;102979.16;5076772;28;20138;-70
2022/02/27 07:18:03;;;;;;;23.37;13.43;;;4.20;99.90;;;4.28;76.58;102986.38;5095090;28;20068;-70
2022/02/27 07:20:32;;;;;;;25.80;14.02;;;4.20;99.90;;;3.87;76.90;102920.38;5095170;28;20439;-70
2022/02/27 07:23:00;;;;;;;24.90;13.90;;;4.20;99.90;;;4.43;76.34;102987.22;5094906;28;20071;-70
2022/02/27 07:25:31;;;;;;;31.57;13.77;;;4.30;99.90;;;4.48;76.34;102978.81;5076928;28;20194;-70
2022/02/27 07:28:00;;;;;;;30.87;14.47;;;4.40;99.90;;;4.86;75.35;102977.31;5094731;28;20390;-70
2022/02/27 07:30:29;;;;;;;23.67;12.43;;;4.70;99.90;;;4.79;74.58;102985.66;5094526;28;20040;-70
2022/02/27 07:32:58;;;;;;;22.73;14.25;;;4.70;99.90;;;4.97;74.40;102977.06;5076669;28;20059;-70
2022/02/27 07:35:28;;;;;;;30.53;13.27;;;4.90;99.90;;;5.27;73.44;102989.09;5094452;28;20130;-70
2022/02/27 07:37:57;;;;;;;29.80;11.55;;;5.10;99.90;;;5.06;73.40;102951.28;5094470;28;20044;-69
2022/02/27 07:40:26;;;;;;;21.17;11.60;;;5.10;99.90;;;5.84;72.69;102985.91;5076459;28;20135;-70
2022/02/27 07:42:56;;;;;;;29.45;12.95;;;5.60;99.90;;;5.52;71.26;102980.72;5076250;28;20048;-70
2022/02/27 07:45:26;;;;;;;22.70;12.00;;;5.60;99.90;;;5.69;71.42;103010.47;5094420;28;20105;-73
2022/02/27 07:47:55;;;;;;;21.17;11.35;;;5.60;99.90;;;5.62;72.02;102976.84;5094173;28;20563;-72
2022/02/27 07:50:27;;;;;;;;;;;5.60;99.90;;;5.43;71.81;102980.28;5094428;28;20044;-71
2022/02/27 07:52:55;;;;;;;26.35;10.73;;;5.50;99.90;;;5.59;72.10;102993.38;5094043;28;19982;-72
2022/02/27 07:55:27;;;;;;;20.87;11.20;;;5.50;99.90;;;4.88;71.61;102873.44;5076154;28;20048;-70
2022/02/27 07:57:55;;;;;;;17.30;10.05;;;5.60;99.90;;;5.85;71.70;103003.44;5093987;28;20119;-70
2022/02/27 08:00:24;;;;;;;24.00;10.52;;;5.60;99.90;;;5.56;70.60;102976.53;5094391;28;20130;-71
2022/02/27 08:02:53;;;;;;;20.55;11.90;;;5.70;99.90;;;5.93;70.93;103006.44;5093889;28;20072;-70
2022/02/27 08:05:22;;;;;;;23.80;11.85;;;5.80;99.90;;;6.03;71.01;103003.44;5093839;28;20068;-71
2022/02/27 08:07:55;;;;;;;27.92;11.27;;;5.90;99.90;;;6.20;70.22;102989.38;5094024;28;20064;-70
2022/02/27 08:10:24;;;;;;;24.50;11.45;;;6.10;99.90;;;6.16;70.10;102988.34;5093682;28;20050;-70
2022/02/27 08:12:52;;;;;;;20.88;10.07;;;6.00;99.90;;;6.38;68.93;102987.63;5093534;28;20089;-70
2022/02/27 08:15:22;;;;;;;23.20;11.05;;;6.30;99.90;;;5.89;69.86;102941.44;5093425;28;20043;-69
2022/02/27 08:17:54;;;;;;;19.58;10.45;;;6.10;99.90;;;6.28;70.36;102985.38;5075550;28;20136;-60
2022/02/27 08:20:23;;;;;;;19.90;10.05;;;6.10;99.90;;;6.73;68.94;102970.81;5093724;28;20086;-60
2022/02/27 08:22:53;;;;;;;23.80;11.07;;;6.50;99.90;;;7.00;66.97;102978.19;5093380;28;20051;-60
2022/02/27 08:25:22;;;;;;;21.52;10.85;;;7.00;99.90;;;7.12;66.74;102956.78;5092553;28;20037;-59
2022/02/27 08:27:50;;;;;;;21.30;10.43;;;7.10;99.90;;;7.09;66.18;102959.25;5093328;28;20051;-60
2022/02/27 08:30:19;;;;;;;23.25;10.30;;;7.10;99.90;;;7.02;65.60;102942.34;5092994;28;20040;-59
2022/02/27 08:32:50;;;;;;;22.23;10.75;;;7.20;99.90;;;7.29;65.99;102987.34;5075412;28;20055;-60
2022/02/27 08:35:18;;;;;;;;;;;7.20;99.90;;;7.37;65.89;102996.47;5094064;28;20056;-60
2022/02/27 08:37:49;;;;;;;20.13;9.32;;;7.20;99.90;;;7.56;64.83;102980.63;5093168;28;19920;-60
2022/02/27 08:40:19;;;;;;;16.90;8.68;;;7.50;99.90;;;7.82;64.67;103008.91;5093419;28;20066;-60
2022/02/27 08:42:54;;;;;;;20.50;9.15;;;7.60;99.90;;;8.11;63.64;102992.53;5093243;28;20036;-59
2022/02/27 08:45:24;;;;;;;18.98;8.43;;;8.00;99.90;;;7.57;63.06;102971.88;5075111;28;20143;-60
2022/02/27 08:47:53;;;;;;;19.98;9.15;;;7.80;99.90;;;7.72;64.22;103004.13;5093389;28;20044;-60
2022/02/27 08:50:23;;;;;;;19.97;9.37;;;7.60;99.90;;;7.71;63.76;102991.78;5093117;28;20043;-60
2022/02/27 08:52:51;;;;;;;18.42;8.73;;;7.70;99.90;;;6.71;63.95;102805.09;5092884;28;20293;-60
2022/02/27 08:55:22;;;;;;;16.95;9.05;;;7.70;99.90;;;7.67;63.69;102981.94;5093021;28;20469;-60
2022/02/27 08:57:52;;;;;;;;;;;7.70;99.90;;;7.93;62.65;102993.56;5093457;28;20378;-60
2022/02/27 09:00:21;;;;;;;26.25;8.75;;;7.80;99.90;;;7.96;62.85;102996.28;5093263;28;19981;-61
2022/02/27 09:02:50;;;;;;;22.00;8.80;;;7.80;99.90;;;7.77;63.37;102980.59;5092969;28;20421;-73
2022/02/27 09:05:22;;;;;;;24.55;9.70;;;7.70;99.90;;;8.05;62.69;103001.97;5093064;28;20042;-59
2022/02/27 09:07:51;;;;;;;15.80;9.50;;;7.90;99.90;;;8.00;62.57;102988.59;5093070;28;20044;-59
2022/02/27 09:10:21;;;;;;;21.30;9.65;;;7.90;99.90;;;7.92;62.00;102987.38;5093055;28;20040;-59
2022/02/27 09:12:52;;;;;;;19.30;8.20;;;8.00;99.90;;;8.32;61.66;102999.53;5093008;28;20458;-59
2022/02/27 09:15:21;;;;;;;17.85;9.02;;;8.10;99.90;;;8.35;61.50;102997.00;5092912;28;20047;-59
2022/02/27 09:17:50;;;;;;;20.58;9.20;;;8.20;99.90;;;8.23;61.09;102975.44;5074709;28;20040;-59
2022/02/27 09:20:21;;;;;;;21.55;8.70;;;8.10;99.90;;;8.27;61.25;102990.53;5074742;28;20382;-59
2022/02/27 09:22:52;;;;;;;16.60;9.10;;;8.20;99.90;;;7.94;62.13;102918.91;5092772;28;20486;-58
2022/02/27 09:25:22;;;;;;;17.15;9.20;;;8.10;99.90;;;8.34;61.24;102984.69;5092592;28;20040;-58
2022/02/27 09:28:11;;;;;;;19.50;9.50;;;8.20;99.90;;;8.15;60.62;102993.56;5092475;28;20051;-59
2022/02/27 09:30:39;;;;;;;15.57;8.88;;;8.00;99.90;;;8.37;61.42;102985.69;5092575;28;20274;-59
2022/02/27 09:33:08;;;;;;;19.58;9.50;;;8.20;99.90;;;7.92;60.93;102963.66;5092544;28;20082;-59
2022/02/27 09:35:39;;;;;;;17.48;8.20;;;8.00;99.90;;;7.95;60.69;103012.97;5092633;28;20040;-59
2022/02/27 09:38:08;;;;;;;15.15;7.70;;;7.90;99.90;;;7.85;60.24;102976.53;5093989;28;20036;-59
2022/02/27 09:40:38;;;;;;;19.67;8.63;;;7.80;99.90;;;7.74;61.33;102956.78;5096817;28;20068;-60
2022/02/27 09:43:06;;;;;;;17.50;8.95;;;7.80;99.90;;;7.91;62.42;102950.44;5096544;28;20442;-61
2022/02/27 09:45:35;;;;;;;16.35;8.30;;;7.90;99.90;;;8.38;61.05;102991.88;5095968;28;20043;-61
2022/02/27 09:48:05;;;;;;;20.15;9.48;;;8.20;99.90;;;8.43;59.65;102979.75;5096478;28;20438;-62
2022/02/27 09:50:34;;;;;;;14.68;8.38;;;8.30;99.90;;;8.34;60.16;102989.94;5096297;28;20090;-60
2022/02/27 09:53:03;;;;;;;16.65;9.00;;;8.20;99.90;;;8.23;58.82;102966.66;5078069;28;20056;-62
2022/02/27 09:55:32;;;;;;;15.40;7.82;;;8.20;99.90;;;8.48;58.23;102979.06;5096481;28;20435;-61
2022/02/27 09:58:02;;;;;;;15.02;8.48;;;8.40;99.90;;;8.06;56.99;102943.13;5078128;28;20074;-61
2022/02/27 10:00:34;;;;;;;14.02;8.05;;;8.20;99.90;;;8.33;57.55;102977.59;5078287;28;20397;-61
2022/02/27 10:03:06;;;;;;;20.60;8.75;;;8.30;99.90;;;8.45;58.62;102988.63;5096055;28;20044;-60
2022/02/27 10:05:37;;;;;;;18.50;8.18;;;8.20;99.90;;;8.43;57.67;102999.09;5096016;28;20054;-61
2022/02/27 10:08:09;;;;;;;17.10;8.35;;;8.30;99.90;;;8.29;56.25;102986.22;5078033;28;20052;-60
2022/02/27 10:10:41;;;;;;;17.33;8.80;;;8.20;99.90;;;8.29;57.30;102923.84;5095860;28;20464;-60
2022/02/27 10:13:12;;;;;;;13.95;7.93;;;8.30;99.90;;;8.51;56.73;102988.84;5095643;28;20387;-61
2022/02/27 10:15:40;;;;;;;15.55;7.88;;;8.40;99.90;;;8.41;56.81;102968.25;5095722;28;20134;-60
2022/02/27 10:18:16;;;;;;;13.20;7.85;;;8.40;99.90;;;8.41;56.19;102971.78;5077764;28;20075;-61
2022/02/27 10:20:44;;;;;;;16.77;7.85;;;8.40;99.90;;;8.34;56.54;102938.13;5095939;28;20101;-60
2022/02/27 10:23:25;;;;;;;18.20;8.88;;;8.50;99.90;;;8.84;56.79;102992.75;5095767;28;20047;-60
2022/02/27 10:26:21;;;;;;;21.75;9.00;;;8.70;99.90;;;8.87;56.65;102963.81;5077930;28;20044;-59